VA5EVR-13 Weather Reports


time (UTC)temp
C
wind
direction
speed
KPH
gust
KPH
rain 1hr
cm
rain 24hr
cm
rain mn
cm
humidity
%
barometer
mb
20220813143012 25 22 0.0 0.0 0.00 0.00 0.00 56 1019.7
20220813142012 24 22 0.0 0.0 0.00 0.00 0.00 63 1019.7
20220813141011 23 22 0.0 0.0 0.00 0.00 0.00 83 1019.9
20220813140011 21 22 0.0 0.0 0.00 0.00 0.00 83 1020.1
20220813135012 20 22 0.0 0.0 0.00 0.00 0.00 83 1020.1
20220813134011 17 22 0.0 0.0 0.00 0.00 0.00 83 1020.5
20220813133012 17 22 0.0 0.0 0.00 0.00 0.00 83 1020.6
20220813132012 17 22 0.0 0.0 0.00 0.00 0.00 83 1020.7
20220813131011 17 22 0.0 0.0 0.00 0.00 0.00 83 1020.9
20220813130012 16 22 0.0 0.0 0.00 0.00 0.00 83 1020.9
20220813125012 16 22 0.0 0.0 0.00 0.00 0.00 83 1021.0
20220813124011 16 22 0.0 0.0 0.00 0.00 0.00 83 1020.9
20220813123011 16 22 0.0 0.0 0.00 0.00 0.00 88 1020.8
20220813122011 17 22 0.0 0.0 0.00 0.00 0.00 91 1020.5
20220813121012 17 22 0.0 0.0 0.00 0.00 0.00 89 1020.7
20220813120011 18 22 0.0 0.0 0.00 0.00 0.00 89 1020.7
20220813115012 18 22 0.0 0.0 0.00 0.00 0.00 87 1020.7
20220813114012 19 22 0.0 0.0 0.00 0.00 0.00 77 1020.7
20220813113012 18 22 0.0 0.0 0.00 0.00 0.00 79 1020.6
20220813112011 18 22 0.0 0.0 0.00 0.00 0.00 85 1020.2
20220813111012 17 22 0.0 0.0 0.00 0.00 0.00 88 1020.0
20220813110011 17 22 0.0 0.0 0.00 0.00 0.00 91 1019.7
20220813105011 17 22 0.0 0.0 0.00 0.00 0.00 92 1019.4
20220813104011 17 22 0.0 0.0 0.00 0.00 0.00 92 1019.3
20220813103011 17 22 0.0 0.0 0.00 0.00 0.00 92 1019.4
20220813102011 17 22 0.0 0.0 0.00 0.00 0.00 92 1019.5
20220813101012 17 22 0.0 0.0 0.00 0.00 0.00 92 1019.4
20220813100011 18 22 0.0 0.0 0.00 0.00 0.00 92 1019.4
20220813095011 18 22 0.0 0.0 0.00 0.00 0.00 91 1019.4
20220813094012 18 22 0.0 0.0 0.00 0.00 0.00 90 1019.3
20220813093011 18 22 0.0 0.0 0.00 0.00 0.00 89 1019.1
20220813092012 18 22 0.0 0.0 0.00 0.00 0.00 89 1019.0
20220813091012 18 22 0.0 0.0 0.00 0.00 0.00 89 1019.0
20220813090011 18 22 0.0 0.0 0.00 0.00 0.00 89 1019.0
20220813085011 19 22 0.0 0.0 0.00 0.00 0.00 88 1019.0
20220813084012 19 22 0.0 0.0 0.00 0.00 0.00 89 1019.1
20220813083012 20 22 0.0 0.0 0.00 0.00 0.00 89 1019.1
20220813082012 20 22 0.0 0.0 0.00 0.00 0.00 88 1019.2
20220813081011 20 22 0.0 0.0 0.00 0.00 0.00 88 1019.2
20220813080012 20 22 0.0 0.0 0.00 0.00 0.00 87 1019.4
20220813075011 20 22 0.0 0.0 0.00 0.00 0.00 86 1019.5
20220813074011 20 22 0.0 0.0 0.00 0.00 0.00 85 1019.7
20220813073011 20 22 0.0 0.0 0.00 0.00 0.00 85 1019.8
20220813072011 20 22 0.0 0.0 0.00 0.00 0.00 86 1019.7
20220813071012 20 22 0.0 0.0 0.00 0.00 0.00 87 1019.7
20220813070011 20 22 0.0 0.0 0.00 0.00 0.00 87 1019.8
20220813065012 21 22 0.0 0.0 0.00 0.00 0.00 86 1019.6
20220813064013 21 22 0.0 0.0 0.00 0.00 0.00 86 1019.6
20220813063011 21 22 0.0 0.0 0.00 0.00 0.00 85 1019.6
20220813062012 21 22 0.0 0.0 0.00 0.00 0.00 85 1019.6
20220813061011 21 22 0.0 0.0 0.00 0.00 0.00 85 1019.3
20220813060012 21 22 0.0 0.0 0.00 0.00 0.00 85 1019.2
20220813055011 21 22 0.0 0.0 0.00 0.00 0.00 84 1019.2
20220813054011 21 22 0.0 0.0 0.00 0.00 0.00 84 1019.4
20220813053012 21 22 0.0 0.0 0.00 0.00 0.00 83 1019.3
20220813052012 20 22 0.0 0.0 0.00 0.00 0.00 82 1019.4
20220813051012 20 22 0.0 0.0 0.00 0.00 0.00 82 1019.3
20220813050011 20 22 0.0 0.0 0.00 0.00 0.00 82 1019.3
20220813045012 20 22 0.0 0.0 0.00 0.00 0.00 82 1019.5
20220813044012 20 22 0.0 0.0 0.00 0.00 0.00 80 1019.5
20220813043012 21 22 0.0 0.0 0.00 0.00 0.00 77 1019.6
20220813042012 21 22 0.0 0.0 0.00 0.00 0.00 75 1019.5
20220813041012 21 22 0.0 0.0 0.00 0.00 0.00 72 1019.6
20220813040012 21 22 0.0 0.0 0.00 0.00 0.00 67 1019.7
20220813035011 21 22 0.0 0.0 0.00 0.00 0.00 66 1019.6
20220813034011 21 22 0.0 0.0 0.00 0.00 0.00 67 1019.6
20220813033012 22 22 0.0 0.0 0.00 0.00 0.00 67 1019.5
20220813032012 22 22 0.0 0.0 0.00 0.00 0.00 65 1019.4
20220813031012 22 22 4.8 4.8 0.00 0.00 0.00 61 1019.4
20220813030012 23 315 6.4 6.4 0.00 0.00 0.00 60 1019.5
20220813025012 23 315 6.4 6.4 0.00 0.00 0.00 60 1019.3
20220813024011 24 338 6.4 6.4 0.00 0.00 0.00 58 1019.4
20220813023012 25 0 3.2 3.2 0.00 0.00 0.00 58 1019.2
20220813022012 25 0 4.8 4.8 0.00 0.00 0.00 57 1019.2
20220813021011 26 45 4.8 4.8 0.00 0.00 0.00 57 1019.0
20220813020011 26 22 6.4 6.4 0.00 0.00 0.00 55 1019.0
20220813015011 27 22 8.0 8.0 0.00 0.00 0.00 53 1018.9
20220813014012 27 22 8.0 8.0 0.00 0.00 0.00 52 1019.0
20220813013012 28 22 9.7 9.7 0.00 0.00 0.00 50 1018.9
20220813012012 28 45 11.3 11.3 0.00 0.00 0.00 49 1018.8
20220813011012 29 0 8.0 8.0 0.00 0.00 0.00 47 1018.8
20220813010012 29 270 8.0 8.0 0.00 0.00 0.00 42 1018.7
20220813005012 29 315 14.5 14.5 0.00 0.00 0.00 39 1018.7
20220813004012 29 22 14.5 14.5 0.00 0.00 0.00 39 1018.6
20220813003012 29 338 11.3 11.3 0.00 0.00 0.00 38 1018.6
20220813002017 29 338 8.0 8.0 0.00 0.00 0.00 37 1018.6
20220813001011 30 315 9.7 9.7 0.00 0.00 0.00 38 1018.6
20220813000011 30 292 12.9 12.9 0.00 0.00 0.00 37 1018.6
20220812235012 30 338 9.7 9.7 0.00 0.00 0.00 38 1018.7
20220812234012 30 292 14.5 14.5 0.00 0.00 0.00 38 1018.8
20220812233012 30 338 12.9 12.9 0.00 0.00 0.00 38 1018.8
20220812232017 30 225 12.9 12.9 0.00 0.00 0.00 38 1018.9
20220812231012 30 292 6.4 6.4 0.00 0.00 0.00 38 1018.9
20220812230011 30 315 6.4 6.4 0.00 0.00 0.00 38 1019.0
20220812225011 30 270 6.4 6.4 0.00 0.00 0.00 41 1019.1
20220812224012 30 292 12.9 12.9 0.00 0.00 0.00 41 1019.1
20220812223012 31 292 8.0 8.0 0.00 0.00 0.00 41 1019.1
20220812222013 31 22 8.0 8.0 0.00 0.00 0.00 40 1019.2
20220812221013 31 270 9.7 9.7 0.00 0.00 0.00 41 1019.4
20220812220013 31 248 9.7 9.7 0.00 0.00 0.00 40 1019.4
20220812215013 31 270 27.4 27.4 0.00 0.00 0.00 38 1019.4
20220812214013 31 112 6.4 6.4 0.00 0.00 0.00 41 1019.4
20220812213013 31 292 6.4 6.4 0.00 0.00 0.00 42 1019.4
20220812212012 31 338 8.0 8.0 0.00 0.00 0.00 44 1019.5
20220812211013 31 292 14.5 14.5 0.00 0.00 0.00 42 1019.6
20220812210013 31 225 12.9 12.9 0.00 0.00 0.00 43 1019.7
20220812205012 31 202 8.0 8.0 0.00 0.00 0.00 45 1019.8
20220812204013 31 202 14.5 14.5 0.00 0.00 0.00 43 1019.8
20220812203011 30 135 8.0 8.0 0.00 0.00 0.00 43 1019.9
20220812202011 30 90 3.2 3.2 0.00 0.00 0.00 46 1019.9
20220812201011 30 202 14.5 14.5 0.00 0.00 0.00 47 1020.1
20220812200011 30 158 14.5 14.5 0.00 0.00 0.00 45 1020.1
20220812195012 30 202 4.8 4.8 0.00 0.00 0.00 48 1020.2
20220812194012 29 248 8.0 8.0 0.00 0.00 0.00 48 1020.3
20220812192012 28 270 6.4 6.4 0.00 0.00 0.00 49 1020.4
20220812191012 28 202 3.2 3.2 0.00 0.00 0.00 49 1020.6
20220812190012 28 270 6.4 6.4 0.00 0.00 0.00 52 1020.4
20220812185011 28 202 12.9 12.9 0.00 0.00 0.00 52 1020.5
20220812184012 27 112 8.0 8.0 0.00 0.00 0.00 52 1020.5
20220812183011 27 180 9.7 9.7 0.00 0.00 0.00 54 1020.5
20220812182012 27 112 9.7 9.7 0.00 0.00 0.00 56 1020.6
20220812181012 27 112 12.9 12.9 0.00 0.00 0.00 59 1020.6
20220812180012 27 90 12.9 12.9 0.00 0.00 0.00 58 1020.7
20220812175011 27 112 6.4 6.4 0.00 0.00 0.00 60 1020.8
20220812174013 27 112 12.9 12.9 0.00 0.00 0.00 60 1021.0
20220812173012 27 158 14.5 14.5 0.00 0.00 0.00 60 1021.0
20220812172012 27 112 6.4 6.4 0.00 0.00 0.00 59 1020.9
20220812171012 27 158 12.9 12.9 0.00 0.00 0.00 58 1020.9
20220812170012 27 135 11.3 11.3 0.00 0.00 0.00 58 1020.9
20220812165012 26 45 8.0 8.0 0.00 0.00 0.00 52 1020.9
20220812164013 26 22 4.8 4.8 0.00 0.00 0.00 54 1020.9
20220812163012 26 292 8.0 8.0 0.00 0.00 0.00 55 1021.0
20220812162017 26 45 11.3 11.3 0.00 0.00 0.00 56 1021.0
20220812161012 26 45 6.4 6.4 0.00 0.00 0.00 59 1020.8
20220812160012 26 315 8.0 8.0 0.00 0.00 0.00 61 1020.8
20220812155012 26 68 9.7 9.7 0.00 0.00 0.00 62 1020.9
20220812153012 26 135 3.2 3.2 0.00 0.00 0.00 66 1020.6
20220812152011 27 68 0.0 0.0 0.00 0.00 0.00 68 1020.7
20220812151011 27 68 0.0 0.0 0.00 0.00 0.00 70 1020.5
20220812150012 27 68 0.0 0.0 0.00 0.00 0.00 73 1020.7
20220812145011 27 68 0.0 0.0 0.00 0.00 0.00 76 1020.8
20220812144012 27 68 0.0 0.0 0.00 0.00 0.00 75 1020.6